createdAt,value
2023-03-21T00:01:53.639Z,2.83
2023-03-21T00:04:23.102Z,2.50
2023-03-21T00:06:51.472Z,3.10
2023-03-21T00:09:19.378Z,3.30
2023-03-21T00:11:52.953Z,3.60
2023-03-21T00:14:20.850Z,3.87
2023-03-21T00:16:54.883Z,3.20
2023-03-21T00:19:26.325Z,2.83
2023-03-21T00:22:07.464Z,3.07
2023-03-21T00:24:36.531Z,3.80
2023-03-21T00:29:54.525Z,4.03
2023-03-21T00:32:23.322Z,3.17
2023-03-21T00:35:11.790Z,3.20
2023-03-21T00:37:52.366Z,3.40
2023-03-21T00:40:27.994Z,4.60
2023-03-21T00:43:00.418Z,4.40
2023-03-21T00:45:28.224Z,3.20
2023-03-21T00:47:58.924Z,3.60
2023-03-21T00:50:29.921Z,3.80
2023-03-21T00:52:57.747Z,3.47
2023-03-21T00:55:27.612Z,4.20
2023-03-21T00:58:02.160Z,3.10
2023-03-21T01:00:37.188Z,2.50
2023-03-21T01:03:23.313Z,2.93
2023-03-21T01:06:07.690Z,2.80
2023-03-21T01:08:54.816Z,3.17
2023-03-21T01:11:25.139Z,3.20
2023-03-21T01:14:07.120Z,3.00
2023-03-21T01:16:38.110Z,3.00
2023-03-21T01:19:15.048Z,3.30
2023-03-21T01:21:50.357Z,3.47
2023-03-21T01:24:20.312Z,2.87
2023-03-21T01:26:48.096Z,3.07
2023-03-21T01:29:18.075Z,3.20
2023-03-21T01:31:47.634Z,3.20
2023-03-21T01:34:16.013Z,3.33
2023-03-21T01:36:46.295Z,3.40
2023-03-21T01:39:14.282Z,2.73
2023-03-21T01:41:44.677Z,2.93
2023-03-21T01:44:16.944Z,3.37
2023-03-21T01:47:17.599Z,3.00
2023-03-21T01:49:41.053Z,2.93
2023-03-21T01:52:19.127Z,3.53
2023-03-21T01:54:54.738Z,3.10
2023-03-21T01:57:41.013Z,3.30
2023-03-21T02:00:13.671Z,3.20
2023-03-21T02:02:52.226Z,2.70
2023-03-21T02:05:25.368Z,3.00
2023-03-21T02:07:53.729Z,3.30
2023-03-21T02:10:21.972Z,3.20
2023-03-21T02:12:55.683Z,3.37
2023-03-21T02:15:26.673Z,3.60
2023-03-21T02:17:57.014Z,3.53
2023-03-21T02:21:10.671Z,3.30
2023-03-21T02:24:04.386Z,2.93
2023-03-21T02:27:01.442Z,3.00
2023-03-21T02:30:29.478Z,3.57
2023-03-21T02:33:31.625Z,3.20
2023-03-21T02:36:17.629Z,3.00
2023-03-21T02:38:53.647Z,3.67
2023-03-21T02:41:29.838Z,3.17
2023-03-21T02:44:07.596Z,3.50
2023-03-21T02:46:45.641Z,3.60
2023-03-21T02:49:24.080Z,3.63
2023-03-21T02:51:54.241Z,3.57
2023-03-21T02:54:38.332Z,2.67
2023-03-21T02:57:12.275Z,3.50
2023-03-21T02:59:53.174Z,4.30
2023-03-21T03:02:24.919Z,3.00
2023-03-21T03:04:52.767Z,3.30
2023-03-21T03:07:33.200Z,3.73
2023-03-21T03:10:24.216Z,3.93
2023-03-21T03:12:59.671Z,4.03
2023-03-21T03:15:36.341Z,3.63
2023-03-21T03:18:12.453Z,3.53
2023-03-21T03:20:47.779Z,4.00
2023-03-21T03:23:25.215Z,4.63
2023-03-21T03:25:57.339Z,4.40
2023-03-21T03:28:27.785Z,3.90
2023-03-21T03:31:08.684Z,3.50
2023-03-21T03:33:45.800Z,3.80
2023-03-21T03:36:30.491Z,4.00
2023-03-21T03:39:01.650Z,4.20
2023-03-21T03:42:00.903Z,4.10
2023-03-21T03:44:21.875Z,3.80
2023-03-21T03:46:55.403Z,3.87
2023-03-21T03:49:30.928Z,4.13
2023-03-21T03:52:01.936Z,3.77
2023-03-21T03:54:34.092Z,3.97
2023-03-21T03:57:06.032Z,3.73
2023-03-21T03:59:43.043Z,3.90
2023-03-21T04:02:17.291Z,4.00
2023-03-21T04:04:45.296Z,3.47
2023-03-21T04:07:13.020Z,3.77
2023-03-21T04:09:44.839Z,3.50
2023-03-21T04:12:14.370Z,3.33
2023-03-21T04:14:47.143Z,3.90
2023-03-21T04:17:15.896Z,3.43
2023-03-21T04:19:45.525Z,4.10
2023-03-21T04:22:13.943Z,3.33
2023-03-21T04:24:49.839Z,3.73
2023-03-21T04:27:18.994Z,4.20
2023-03-21T04:29:46.769Z,3.77
2023-03-21T04:32:17.844Z,4.03
2023-03-21T04:34:50.017Z,4.00
2023-03-21T04:37:19.109Z,3.20
2023-03-21T04:39:49.619Z,4.20
2023-03-21T04:42:21.705Z,3.83
2023-03-21T04:44:58.597Z,3.83
2023-03-21T04:47:26.815Z,3.47
2023-03-21T04:49:54.677Z,3.50
2023-03-21T04:52:25.582Z,3.50
2023-03-21T04:54:53.522Z,3.30
2023-03-21T04:57:22.720Z,3.90
2023-03-21T04:59:52.612Z,4.17
2023-03-21T05:02:20.585Z,4.27
2023-03-21T05:04:50.169Z,3.87
2023-03-21T05:07:26.528Z,4.37
2023-03-21T05:10:00.773Z,4.77
2023-03-21T05:12:31.382Z,4.17
2023-03-21T05:14:59.194Z,4.00
2023-03-21T05:17:36.594Z,4.53
2023-03-21T05:20:06.213Z,4.40
2023-03-21T05:22:43.002Z,3.67
2023-03-21T05:25:14.181Z,4.33
2023-03-21T05:27:45.409Z,4.30
2023-03-21T05:30:17.822Z,4.60
2023-03-21T05:32:48.429Z,4.70
2023-03-21T05:35:18.740Z,4.80
2023-03-21T05:37:46.531Z,4.33
2023-03-21T05:40:14.839Z,5.40
2023-03-21T05:42:44.093Z,5.33
2023-03-21T05:45:12.827Z,4.50
2023-03-21T05:47:42.610Z,5.00
2023-03-21T05:50:14.296Z,5.60
2023-03-21T05:52:42.784Z,5.10
2023-03-21T05:55:10.965Z,3.90
2023-03-21T05:57:42.836Z,4.30
2023-03-21T06:00:16.242Z,3.87
2023-03-21T06:02:44.478Z,3.33
2023-03-21T06:05:12.565Z,4.37
2023-03-21T06:07:42.543Z,4.03
2023-03-21T06:10:11.565Z,5.37
2023-03-21T06:12:43.189Z,3.90
2023-03-21T06:15:13.390Z,3.93
2023-03-21T06:17:43.947Z,3.73
2023-03-21T06:20:21.293Z,3.70
2023-03-21T06:22:50.503Z,3.67
2023-03-21T06:25:18.724Z,3.97
2023-03-21T06:27:48.302Z,3.90
2023-03-21T06:30:18.568Z,3.50
2023-03-21T06:32:48.040Z,3.50
2023-03-21T06:35:16.626Z,3.30
2023-03-21T06:37:51.731Z,4.23
2023-03-21T06:40:22.479Z,3.90
2023-03-21T06:42:50.336Z,3.80
2023-03-21T06:45:21.370Z,3.37
2023-03-21T06:47:51.248Z,3.20
2023-03-21T06:50:19.108Z,3.20
2023-03-21T06:52:46.900Z,3.70
2023-03-21T06:55:14.679Z,3.77
2023-03-21T06:57:42.607Z,3.70
2023-03-21T07:00:11.842Z,4.00
2023-03-21T07:02:41.127Z,2.73
2023-03-21T07:05:09.803Z,2.90
2023-03-21T07:07:37.846Z,3.00
2023-03-21T07:10:07.001Z,2.93
2023-03-21T07:12:36.035Z,3.23
2023-03-21T07:15:05.898Z,3.50
2023-03-21T07:17:34.562Z,3.13
2023-03-21T07:20:06.744Z,3.10
2023-03-21T07:22:34.919Z,3.00
2023-03-21T07:25:17.281Z,3.00
2023-03-21T07:27:46.555Z,3.07
2023-03-21T07:30:18.330Z,3.20
2023-03-21T07:32:49.153Z,3.20
2023-03-21T07:35:21.526Z,3.00
2023-03-21T07:37:49.726Z,2.80
2023-03-21T07:40:18.604Z,3.57
2023-03-21T07:42:50.883Z,3.43
2023-03-21T07:45:27.354Z,3.47
2023-03-21T07:48:00.584Z,2.93
2023-03-21T07:50:30.127Z,3.53
2023-03-21T07:53:02.167Z,2.53
2023-03-21T07:55:30.865Z,3.40
2023-03-21T07:58:02.818Z,2.97
2023-03-21T08:00:34.592Z,3.20
2023-03-21T08:03:02.980Z,3.53
2023-03-21T08:05:36.270Z,3.10
2023-03-21T08:08:07.097Z,3.10
2023-03-21T08:10:36.084Z,3.00
2023-03-21T08:13:04.171Z,3.50
2023-03-21T08:15:35.224Z,3.10
2023-03-21T08:18:06.424Z,3.00
2023-03-21T08:20:35.802Z,3.57
2023-03-21T08:23:13.897Z,3.77
2023-03-21T08:25:42.170Z,3.10
2023-03-21T08:28:10.549Z,3.00
2023-03-21T08:30:39.763Z,2.87
2023-03-21T08:33:08.074Z,3.10
2023-03-21T08:35:41.395Z,2.60
2023-03-21T08:38:10.123Z,2.30
2023-03-21T08:40:41.342Z,3.23
2023-03-21T08:43:09.224Z,2.23
2023-03-21T08:45:37.376Z,2.67
2023-03-21T08:48:08.450Z,2.17
2023-03-21T08:50:36.872Z,2.90
2023-03-21T08:53:09.843Z,2.63
2023-03-21T08:55:41.408Z,2.53
2023-03-21T08:58:17.632Z,2.13
2023-03-21T09:00:45.441Z,2.53
2023-03-21T09:03:15.656Z,2.80
2023-03-21T09:05:45.664Z,2.37
2023-03-21T09:08:14.825Z,2.40
2023-03-21T09:10:46.205Z,2.00
2023-03-21T09:13:13.969Z,2.30
2023-03-21T09:15:45.390Z,1.37
2023-03-21T09:18:19.006Z,1.47
2023-03-21T09:21:00.961Z,1.60
2023-03-21T09:23:30.509Z,2.23
2023-03-21T09:25:58.803Z,2.13
2023-03-21T09:28:31.650Z,1.60
2023-03-21T09:31:06.493Z,1.60
2023-03-21T09:33:35.436Z,1.43
2023-03-21T09:36:09.939Z,1.73
2023-03-21T09:38:45.067Z,2.30
2023-03-21T09:41:24.853Z,1.80
2023-03-21T09:44:00.364Z,2.40
2023-03-21T09:46:35.201Z,1.70
2023-03-21T09:49:11.077Z,1.93
2023-03-21T09:51:48.209Z,2.47
2023-03-21T09:54:22.867Z,2.00
2023-03-21T09:56:53.285Z,2.20
2023-03-21T09:59:25.623Z,1.77
2023-03-21T10:01:55.371Z,2.33
2023-03-21T10:04:24.638Z,2.10
2023-03-21T10:06:57.872Z,2.70
2023-03-21T10:09:35.123Z,2.27
2023-03-21T10:12:06.390Z,3.33
2023-03-21T10:14:36.878Z,2.33
2023-03-21T10:17:15.041Z,2.80
2023-03-21T10:19:46.705Z,2.70
2023-03-21T10:22:17.562Z,2.70
2023-03-21T10:24:52.548Z,2.00
2023-03-21T10:27:21.238Z,2.33
2023-03-21T10:29:53.202Z,1.97
2023-03-21T10:32:23.622Z,1.47
2023-03-21T10:37:26.314Z,2.00
2023-03-21T10:39:58.511Z,2.23
2023-03-21T10:42:29.578Z,2.33
2023-03-21T10:45:01.056Z,2.03
2023-03-21T10:47:35.955Z,1.53
2023-03-21T10:50:10.782Z,2.00
2023-03-21T10:52:44.178Z,1.83
2023-03-21T10:55:23.561Z,1.77
2023-03-21T10:57:59.221Z,1.50
2023-03-21T11:00:29.789Z,1.70
2023-03-21T11:02:58.833Z,1.30
2023-03-21T11:05:28.452Z,1.30
2023-03-21T11:08:01.256Z,1.37
2023-03-21T11:10:35.649Z,1.73
2023-03-21T11:13:11.289Z,2.20
2023-03-21T11:15:45.762Z,1.63
2023-03-21T11:18:22.498Z,2.20
2023-03-21T11:20:55.405Z,2.40
2023-03-21T11:23:27.719Z,3.07
2023-03-21T11:26:01.710Z,3.00
2023-03-21T11:28:40.423Z,3.00
2023-03-21T11:31:09.833Z,2.40
2023-03-21T11:33:42.479Z,2.57
2023-03-21T11:36:34.186Z,2.60
2023-03-21T11:39:14.915Z,2.47
2023-03-21T11:41:45.277Z,2.80
2023-03-21T11:44:31.427Z,3.00
2023-03-21T11:47:05.246Z,2.90
2023-03-21T11:49:36.948Z,2.70
2023-03-21T11:52:16.193Z,3.07
2023-03-21T11:55:05.138Z,2.73
2023-03-21T11:57:43.409Z,3.20
2023-03-21T12:00:17.694Z,2.80
2023-03-21T12:02:56.281Z,3.70
2023-03-21T12:05:31.281Z,2.67
2023-03-21T12:08:05.235Z,2.67
2023-03-21T12:10:42.296Z,2.70
2023-03-21T12:13:24.575Z,2.90
2023-03-21T12:15:59.733Z,2.80
2023-03-21T12:18:55.145Z,2.13
2023-03-21T12:21:29.927Z,2.60
2023-03-21T12:24:06.349Z,3.13
2023-03-21T12:26:44.596Z,2.90
2023-03-21T12:29:39.310Z,2.20
2023-03-21T12:32:15.951Z,2.10
2023-03-21T12:35:00.260Z,1.70
2023-03-21T12:37:35.863Z,2.37
2023-03-21T12:40:16.543Z,2.27
2023-03-21T12:42:54.184Z,2.50
2023-03-21T12:45:29.441Z,2.77
2023-03-21T12:48:04.270Z,2.10
2023-03-21T12:50:38.169Z,2.43
2023-03-21T12:53:28.590Z,1.60
2023-03-21T12:55:58.882Z,2.10
2023-03-21T12:58:28.567Z,1.70
2023-03-21T13:01:01.609Z,1.30
2023-03-21T13:03:40.338Z,2.20
2023-03-21T13:06:11.669Z,1.90
2023-03-21T13:08:42.017Z,1.53
2023-03-21T13:11:14.031Z,1.33
2023-03-21T13:13:45.844Z,1.67
2023-03-21T13:16:18.269Z,1.57
2023-03-21T13:18:56.396Z,1.50
2023-03-21T13:21:39.179Z,1.90
2023-03-21T13:24:19.471Z,1.50
2023-03-21T13:27:04.263Z,0.90
2023-03-21T13:29:34.220Z,1.73
2023-03-21T13:32:16.623Z,1.53
2023-03-21T13:34:45.058Z,1.50
2023-03-21T13:37:19.668Z,1.10
2023-03-21T13:39:48.527Z,1.50
2023-03-21T13:42:26.739Z,1.70
2023-03-21T13:44:57.399Z,2.10
2023-03-21T13:47:47.333Z,2.50
2023-03-21T13:50:55.270Z,2.23
2023-03-21T13:53:42.658Z,2.47
2023-03-21T13:56:25.625Z,1.90
2023-03-21T13:59:01.535Z,2.87
2023-03-21T14:01:33.621Z,2.10
2023-03-21T14:04:08.797Z,1.97
2023-03-21T14:06:43.862Z,2.50
2023-03-21T14:09:19.629Z,2.00
2023-03-21T14:11:49.225Z,2.40
2023-03-21T14:14:20.251Z,2.60
2023-03-21T14:19:39.938Z,2.60
2023-03-21T14:22:15.179Z,2.20
2023-03-21T14:24:49.608Z,2.57
2023-03-21T14:27:19.512Z,2.27
2023-03-21T14:29:49.161Z,2.20
2023-03-21T14:32:23.264Z,2.00
2023-03-21T14:34:53.208Z,2.33
2023-03-21T14:37:33.624Z,2.20
2023-03-21T14:40:02.621Z,2.53
2023-03-21T14:42:38.266Z,2.33
2023-03-21T14:45:20.852Z,2.20
2023-03-21T14:48:06.164Z,2.27
2023-03-21T14:50:41.449Z,2.30
2023-03-21T14:53:13.365Z,2.40
2023-03-21T14:55:46.382Z,2.73
2023-03-21T14:58:15.374Z,2.00
2023-03-21T15:00:48.768Z,2.40
2023-03-21T15:03:19.878Z,3.63
2023-03-21T15:05:51.561Z,2.93
2023-03-21T15:08:23.244Z,3.10
2023-03-21T15:11:08.110Z,2.80
2023-03-21T15:13:38.401Z,2.13
2023-03-21T15:16:07.413Z,2.47
2023-03-21T15:18:43.002Z,2.80
2023-03-21T15:21:16.460Z,2.77
2023-03-21T15:23:46.091Z,2.50
2023-03-21T15:26:18.809Z,2.03
2023-03-21T15:28:49.269Z,2.37
2023-03-21T15:31:20.521Z,3.00
2023-03-21T15:33:50.417Z,2.37
2023-03-21T15:36:24.565Z,2.43
2023-03-21T15:39:03.316Z,2.70
2023-03-21T15:41:35.733Z,2.33
2023-03-21T15:44:07.819Z,2.50
2023-03-21T15:46:44.689Z,2.37
2023-03-21T15:49:21.274Z,2.90
2023-03-21T15:52:05.157Z,2.50
2023-03-21T15:54:40.223Z,3.20
2023-03-21T15:57:23.552Z,2.50
2023-03-21T15:59:55.481Z,2.60
2023-03-21T16:02:28.247Z,2.50
2023-03-21T16:04:57.770Z,2.50
2023-03-21T16:07:30.808Z,2.60
2023-03-21T16:10:01.192Z,5.90
2023-03-21T16:12:29.612Z,3.43
2023-03-21T16:14:57.802Z,2.37
2023-03-21T16:17:30.387Z,3.00
2023-03-21T16:19:58.461Z,2.27
2023-03-21T16:22:43.411Z,2.50
2023-03-21T16:25:12.538Z,2.60
2023-03-21T16:27:40.801Z,2.67
2023-03-21T16:30:19.167Z,2.40
2023-03-21T16:32:47.826Z,2.50
2023-03-21T16:35:22.191Z,3.00
2023-03-21T16:37:56.310Z,2.60
2023-03-21T16:40:29.146Z,2.33
2023-03-21T16:43:12.267Z,2.20
2023-03-21T16:45:40.472Z,2.13
2023-03-21T16:48:12.539Z,2.10
2023-03-21T16:50:42.682Z,2.63
2023-03-21T16:53:12.202Z,2.50
2023-03-21T16:55:41.831Z,2.83
2023-03-21T16:58:10.080Z,2.37
2023-03-21T17:00:38.092Z,2.70
2023-03-21T17:03:19.077Z,2.60
2023-03-21T17:05:48.587Z,3.20
2023-03-21T17:08:20.078Z,2.57
2023-03-21T17:11:06.550Z,2.67
2023-03-21T17:13:35.683Z,2.20
2023-03-21T17:16:03.709Z,2.73
2023-03-21T17:18:32.138Z,2.23
2023-03-21T17:21:01.791Z,2.40
2023-03-21T17:23:31.411Z,2.20
2023-03-21T17:26:02.367Z,2.20
2023-03-21T17:28:31.066Z,2.20
2023-03-21T17:30:58.967Z,2.30
2023-03-21T17:33:27.028Z,2.17
2023-03-21T17:35:54.988Z,2.50
2023-03-21T17:38:26.497Z,2.73
2023-03-21T17:40:55.822Z,3.13
2023-03-21T17:43:26.619Z,3.40
2023-03-21T17:45:56.902Z,2.60
2023-03-21T17:48:29.674Z,2.53
2023-03-21T17:50:57.752Z,2.23
2023-03-21T17:53:26.805Z,3.30
2023-03-21T17:56:01.911Z,3.00
2023-03-21T17:58:32.124Z,3.37
2023-03-21T18:01:02.818Z,3.70
2023-03-21T18:03:30.648Z,3.80
2023-03-21T18:06:00.977Z,3.03
2023-03-21T18:08:29.724Z,3.60
2023-03-21T18:10:59.092Z,3.97
2023-03-21T18:13:28.377Z,4.40
2023-03-21T18:15:59.756Z,3.83
2023-03-21T18:18:28.506Z,4.83
2023-03-21T18:21:01.701Z,4.47
2023-03-21T18:23:29.726Z,4.90
2023-03-21T18:25:59.289Z,4.30
2023-03-21T18:28:28.390Z,4.30
2023-03-21T18:31:09.560Z,4.37
2023-03-21T18:33:40.977Z,3.70
2023-03-21T18:36:13.851Z,4.83
2023-03-21T18:38:42.188Z,3.33
2023-03-21T18:41:11.618Z,4.90
2023-03-21T18:46:31.704Z,6.00
2023-03-21T18:49:19.969Z,5.47
2023-03-21T18:51:48.010Z,6.20
2023-03-21T18:54:15.947Z,7.83
2023-03-21T18:57:34.653Z,5.90
2023-03-21T18:59:42.428Z,6.10
2023-03-21T19:02:13.240Z,5.47
2023-03-21T19:04:41.484Z,5.40
2023-03-21T19:07:22.665Z,4.33
2023-03-21T19:10:15.354Z,5.00
2023-03-21T19:12:42.360Z,4.50
2023-03-21T19:15:11.318Z,5.20
2023-03-21T19:20:31.015Z,5.17
2023-03-21T19:22:58.833Z,5.77
2023-03-21T19:25:27.210Z,5.53
2023-03-21T19:27:57.082Z,5.30
2023-03-21T19:30:30.084Z,6.30
2023-03-21T19:33:00.028Z,5.47
2023-03-21T19:35:41.250Z,4.73
2023-03-21T19:38:11.940Z,4.90
2023-03-21T19:40:42.012Z,4.90
2023-03-21T19:43:31.821Z,4.87
2023-03-21T19:46:00.749Z,3.90
2023-03-21T19:48:29.561Z,3.77
2023-03-21T19:51:36.590Z,3.60
2023-03-21T19:53:56.643Z,3.60
2023-03-21T19:56:27.390Z,3.23
2023-03-21T19:59:01.688Z,4.50
2023-03-21T20:01:35.186Z,4.27
2023-03-21T20:04:03.046Z,3.50
2023-03-21T20:06:30.872Z,3.90
2023-03-21T20:09:41.333Z,3.90
2023-03-21T20:11:46.675Z,3.13
2023-03-21T20:14:18.990Z,3.70
2023-03-21T20:16:47.019Z,4.23
2023-03-21T20:19:16.293Z,3.93
2023-03-21T20:21:52.825Z,4.40
2023-03-21T20:24:23.177Z,4.30
2023-03-21T20:26:53.674Z,4.80
2023-03-21T20:32:14.689Z,4.23
2023-03-21T20:34:46.234Z,6.47
2023-03-21T20:37:14.378Z,5.00
2023-03-21T20:39:54.084Z,6.00
2023-03-21T20:42:24.983Z,6.20
2023-03-21T20:44:59.395Z,5.23
2023-03-21T20:47:28.689Z,6.90
2023-03-21T20:49:56.795Z,6.40
2023-03-21T20:53:00.831Z,5.80
2023-03-21T20:55:16.312Z,5.20
2023-03-21T20:57:44.433Z,4.60
2023-03-21T21:00:17.139Z,4.17
2023-03-21T21:02:53.197Z,4.20
2023-03-21T21:05:28.662Z,3.80
2023-03-21T21:08:01.620Z,3.70
2023-03-21T21:10:31.001Z,3.43
2023-03-21T21:13:01.967Z,3.80
2023-03-21T21:15:42.271Z,3.50
2023-03-21T21:18:17.150Z,3.40
2023-03-21T21:20:45.227Z,3.90
2023-03-21T21:23:13.725Z,3.40
2023-03-21T21:25:41.604Z,3.00
2023-03-21T21:28:14.379Z,3.27
2023-03-21T21:30:43.556Z,2.83
2023-03-21T21:33:14.560Z,3.57
2023-03-21T21:35:47.660Z,2.47
2023-03-21T21:38:17.970Z,3.30
2023-03-21T21:40:46.225Z,3.53
2023-03-21T21:43:14.870Z,3.67
2023-03-21T21:45:46.588Z,3.80
2023-03-21T21:48:16.323Z,3.77
2023-03-21T21:50:54.176Z,3.77
2023-03-21T21:53:28.296Z,3.40
2023-03-21T21:56:03.511Z,2.90
2023-03-21T21:58:33.718Z,2.50
2023-03-21T22:01:19.975Z,3.07
2023-03-21T22:03:51.736Z,2.57
2023-03-21T22:06:19.857Z,3.07
2023-03-21T22:08:52.010Z,2.80
2023-03-21T22:11:28.612Z,3.20
2023-03-21T22:14:00.269Z,3.63
2023-03-21T22:16:43.684Z,3.40
2023-03-21T22:19:15.845Z,3.30
2023-03-21T22:21:46.425Z,3.17
2023-03-21T22:24:16.673Z,3.13
2023-03-21T22:26:44.500Z,3.10
2023-03-21T22:29:12.318Z,3.10
2023-03-21T22:31:43.844Z,3.73
2023-03-21T22:34:17.690Z,5.03
2023-03-21T22:36:47.288Z,4.80
2023-03-21T22:39:15.479Z,4.77
2023-03-21T22:41:43.401Z,4.23
2023-03-21T22:44:11.369Z,4.90
2023-03-21T22:46:42.263Z,4.80
2023-03-21T22:49:14.360Z,4.10
2023-03-21T22:51:45.852Z,3.20
2023-03-21T22:54:25.632Z,3.67
2023-03-21T22:56:58.102Z,2.80
2023-03-21T22:59:29.910Z,3.10
2023-03-21T23:02:03.077Z,3.20
2023-03-21T23:04:32.919Z,2.70
2023-03-21T23:07:05.880Z,3.20
2023-03-21T23:09:36.669Z,3.65
2023-03-21T23:12:09.460Z,3.73
2023-03-21T23:14:39.167Z,3.50
2023-03-21T23:17:10.270Z,3.40
2023-03-21T23:19:41.394Z,3.23
2023-03-21T23:22:12.549Z,3.50
2023-03-21T23:24:40.638Z,2.80
2023-03-21T23:27:10.793Z,3.50
2023-03-21T23:29:41.082Z,3.20
2023-03-21T23:34:57.754Z,3.30
2023-03-21T23:37:30.968Z,3.20
2023-03-21T23:39:59.750Z,3.50
2023-03-21T23:42:30.146Z,4.20
2023-03-21T23:44:58.202Z,3.43
2023-03-21T23:47:32.568Z,3.70
2023-03-21T23:50:02.049Z,3.17
2023-03-21T23:52:29.812Z,3.40
2023-03-21T23:55:00.761Z,2.90
2023-03-21T23:57:30.446Z,3.37
